Latest Weather Observations for Parawa West

IDS60901

Issued at 6:15 pm CST Wednesday 20 August 2014 (issued every 10 minutes, with the page automatically refreshed every 10 minutes)

About weather observations | Map of Adelaide area stations | Latest observations for Adelaide area | Other Formats
Station Details ID: 023875 Name: SECOND VALLEY FOREST AWS Lat: -35.57 Lon: 138.29 Height: 341.0 m
Data from the previous 72 hours. | See also: Recent months at Parawa West
Date/Time
CST
Tmp

°C
App
Tmp
°C
Dew
Point
°C
Rel
Hum
%
Delta-T

°C
Wind Press
QNH
hPa
Press
MSL
hPa
Rain
since
9 am
mm
Dir
 
Spd
km/h
Gust
km/h
Spd
kts
Gust
kts
20/06:00pm 7.2 2.2 3.4 77 1.6 ESE 19 26 10 14 1026.2 1026.6 0.0
20/05:30pm 7.9 2.9 3.6 74 1.9 ESE 19 24 10 13 1026.1 1026.5 0.0
20/05:00pm 8.4 2.4 3.3 70 2.2 ESE 24 30 13 16 1025.8 1026.2 0.0
20/04:30pm 8.8 3.2 3.2 68 2.4 ESE 22 32 12 17 1025.8 1026.2 0.0
20/04:00pm 9.3 4.1 3.5 67 2.6 ESE 20 30 11 16 1026.0 1026.4 0.0
20/03:30pm 9.4 4.2 3.6 67 2.6 ESE 20 28 11 15 1026.1 1026.5 0.0
20/03:00pm 9.9 5.0 4.3 68 2.5 ESE 19 26 10 14 1026.1 1026.5 0.0
20/02:30pm 9.8 4.8 3.8 66 2.7 ESE 19 28 10 15 1026.0 1026.4 0.0
20/02:00pm 10.1 5.5 3.6 64 2.9 E 17 22 9 12 1026.0 1026.4 0.0
20/01:30pm 9.5 5.3 3.7 67 2.6 E 15 24 8 13 1026.2 1026.6 0.0
20/01:00pm 10.2 6.1 4.1 66 2.8 E 15 26 8 14 1026.4 1026.8 0.0
20/12:30pm 9.9 5.5 4.7 70 2.4 E 17 24 9 13 1026.9 1027.2 0.0
20/12:00pm 9.3 4.2 4.1 70 2.3 E 20 26 11 14 1027.1 1027.4 0.0
20/11:30am 9.2 4.2 3.4 67 2.5 E 19 24 10 13 1027.3 1027.6 0.0
20/11:00am 9.2 4.0 3.6 68 2.5 ESE 20 32 11 17 1027.5 1027.8 0.0
20/10:30am 9.7 5.2 4.1 68 2.5 E 17 24 9 13 1027.5 1027.8 0.0
20/10:00am 9.3 4.4 4.3 71 2.3 E 19 26 10 14 1027.6 1027.9 0.0
20/09:30am 9.0 4.3 5.0 76 1.8 E 19 26 10 14 1027.5 1027.8 0.0
20/09:00am 8.4 3.4 4.4 76 1.8 E 20 28 11 15 1027.3 1027.6 0.2
20/08:30am 7.9 3.0 4.1 77 1.7 E 19 24 10 13 1027.1 1027.4 0.2
20/08:00am 7.4 2.5 4.0 79 1.5 E 19 24 10 13 1026.9 1027.2 0.2
20/07:30am 7.3 2.2 4.3 81 1.3 E 20 28 11 15 1026.6 1026.9 0.2
20/07:00am 7.5 3.1 4.6 82 1.3 E 17 20 9 11 1026.3 1026.7 0.2
20/06:30am 7.5 3.8 4.5 81 1.3 E 13 19 7 10 1026.0 1026.4 0.2
20/06:00am 7.7 3.7 4.7 81 1.3 E 15 20 8 11 1025.9 1026.3 0.2
20/05:30am 7.9 4.1 4.1 77 1.7 E 13 19 7 10 1025.8 1026.2 0.2
20/05:00am 7.9 4.1 4.1 77 1.7 E 13 19 7 10 1025.6 1025.9 0.2
20/04:30am 7.9 4.2 4.7 80 1.4 ESE 13 17 7 9 1025.5 1025.8 0.2
20/04:00am 8.0 4.5 5.5 84 1.1 ESE 13 19 7 10 1025.3 1025.6 0.2
20/03:30am 7.9 4.9 5.9 87 0.9 ESE 11 15 6 8 1025.2 1025.5 0.2
20/03:00am 7.6 5.4 6.2 91 0.6 ESE 7 15 4 8 1025.3 1025.6 0.2
20/02:30am 7.5 5.3 6.0 90 0.7 ESE 7 9 4 5 1025.5 1025.8 0.2
20/02:00am 7.5 5.3 6.3 92 0.6 ESE 7 9 4 5 1025.7 1026.1 0.2
20/01:30am 7.4 4.5 6.3 93 0.5 SE 11 15 6 8 1025.7 1026.1 0.2
20/01:00am 7.4 3.0 6.7 95 0.3 SE 19 24 10 13 1025.7 1026.1 0.2
20/12:30am 7.7 4.4 6.6 93 0.5 SE 13 19 7 10 1025.9 1026.3 0.2
20/12:00am 7.7 4.4 6.6 93 0.5 SE 13 17 7 9 1025.9 1026.3 0.2
 
Date/Time
CST
Tmp

°C
App
Tmp
°C
Dew
Point
°C
Rel
Hum
%
Delta-T

°C
Wind Press
QNH
hPa
Press
MSL
hPa
Rain
since
9 am
mm
Dir
 
Spd
km/h
Gust
km/h
Spd
kts
Gust
kts
19/11:30pm 6.8 4.2 5.9 94 0.4 SE 9 13 5 7 1026.0 1026.4 0.2
19/11:00pm 7.3 4.7 6.2 93 0.5 SSE 9 13 5 7 1026.1 1026.5 0.2
19/10:30pm 7.4 2.9 6.3 93 0.5 ESE 19 24 10 13 1026.2 1026.6 0.2
19/10:00pm 7.9 5.8 6.7 92 0.6 SSE 7 11 4 6 1026.2 1026.6 0.2
19/09:30pm 7.8 4.6 6.9 94 0.4 SSE 13 17 7 9 1026.3 1026.7 0.2
19/09:00pm 8.1 4.4 6.1 87 0.9 SSE 15 20 8 11 1026.4 1026.8 0.2
19/08:30pm 8.5 5.4 5.4 81 1.4 SSE 11 19 6 10 1026.3 1026.7 0.0
19/08:00pm 7.7 5.1 4.3 79 1.5 SSE 7 11 4 6 1026.2 1026.6 0.0
19/07:30pm 8.2 5.0 5.0 80 1.4 SSE 11 15 6 8 1026.2 1026.6 0.0
19/07:00pm 8.2 4.9 4.6 78 1.6 SE 11 17 6 9 1026.0 1026.4 0.0
19/06:30pm 8.2 3.5 5.0 80 1.4 SE 19 26 10 14 1025.8 1026.2 0.0
19/06:00pm 8.2 5.5 5.7 84 1.1 SE 9 13 5 7 1025.6 1025.9 0.0
19/05:30pm 8.4 5.2 5.2 80 1.5 SE 11 15 6 8 1025.3 1025.6 0.0
19/05:00pm 8.7 5.5 5.1 78 1.6 SE 11 15 6 8 1025.2 1025.5 0.0
19/04:30pm 8.7 4.9 5.6 81 1.4 ESE 15 20 8 11 1025.1 1025.4 0.0
19/04:00pm 9.3 5.7 5.1 75 1.9 SSE 13 19 7 10 1025.0 1025.3 0.0
19/03:30pm 9.1 5.4 4.5 73 2.1 SSE 13 19 7 10 1025.0 1025.3 0.0
19/03:00pm 9.5 5.5 5.1 74 2.0 SSE 15 20 8 11 1024.9 1025.2 0.0
19/02:30pm 10.0 5.6 5.0 71 2.3 SSE 17 24 9 13 1024.8 1025.1 0.0
19/02:00pm 9.3 5.4 5.3 76 1.8 SE 15 20 8 11 1024.9 1025.2 0.0
19/01:30pm 8.7 4.9 5.6 81 1.4 S 15 20 8 11 1025.0 1025.3 0.0
19/01:00pm 9.4 5.7 4.4 71 2.3 SE 13 19 7 10 1025.2 1025.5 0.0
19/12:30pm 9.8 6.6 5.2 73 2.1 SSE 11 19 6 10 1025.5 1025.8 0.0
19/12:00pm 9.6 5.7 5.2 74 2.0 SSE 15 19 8 10 1025.8 1026.2 0.0
19/11:30am 9.7 5.4 5.1 73 2.1 SE 17 20 9 11 1026.1 1026.5 0.0
19/11:00am 10.0 6.5 5.6 74 2.1 ESE 13 19 7 10 1026.2 - 0.0
19/10:30am 9.4 5.3 6.3 81 1.5 ESE 17 20 9 11 1026.2 1026.6 0.0
19/10:00am 9.6 5.8 5.6 76 1.9 SE 15 22 8 12 1026.1 - 0.0
19/09:30am 9.2 5.2 5.0 75 1.9 SE 15 20 8 11 1026.0 1026.4 0.0
19/09:00am 9.5 7.0 4.5 71 2.3 ESE 7 13 4 7 1025.9 1026.3 0.0
19/08:30am 8.5 5.8 5.8 83 1.2 ESE 9 15 5 8 1025.8 1026.2 0.0
19/08:00am 8.1 4.3 5.6 84 1.1 ESE 15 22 8 12 1025.6 - 0.0
19/07:30am 8.2 4.1 2.2 66 2.5 SE 13 19 7 10 1025.3 1025.6 0.0
19/07:00am 7.8 3.7 2.3 68 2.3 SE 13 19 7 10 1025.2 - 0.0
19/06:30am 8.0 3.6 2.7 69 2.3 SE 15 20 8 11 1024.8 1025.1 0.0
19/06:00am 7.8 4.2 3.1 72 2.0 SE 11 17 6 9 1024.8 1025.1 0.0
19/05:30am 7.9 4.8 3.6 74 1.9 SSE 9 15 5 8 1024.6 1024.9 0.0
19/05:00am 7.3 4.7 3.4 76 1.7 SSE 6 9 3 5 1024.5 - 0.0
19/04:30am 7.1 4.7 2.2 71 2.0 SSE 4 4 2 2 1024.4 1024.7 0.0
19/04:00am 6.6 3.8 2.1 73 1.9 SSE 6 7 3 4 1024.1 - 0.0
19/03:30am 6.5 3.1 2.0 73 1.9 SSE 9 11 5 6 1024.3 1024.6 0.0
19/03:00am 7.3 4.6 2.6 72 2.0 SSE 6 9 3 5 1024.4 1024.7 0.0
19/02:30am 7.0 3.7 2.7 74 1.8 SE 9 11 5 6 1024.6 1024.9 0.0
19/02:00am 7.9 5.2 3.8 75 1.8 SE 7 9 4 5 1024.8 - 0.0
19/01:30am 8.0 4.9 3.5 73 2.0 SE 9 13 5 7 1024.8 1025.1 0.0
19/01:00am 8.2 4.6 3.1 70 2.2 SE 11 15 6 8 1024.8 - 0.0
19/12:30am 7.9 4.3 3.2 72 2.0 SSE 11 19 6 10 1024.9 1025.2 0.0
19/12:00am 8.1 4.2 3.4 72 2.0 SE 13 22 7 12 1025.0 1025.3 0.0
 
Date/Time
CST
Tmp

°C
App
Tmp
°C
Dew
Point
°C
Rel
Hum
%
Delta-T

°C
Wind Press
QNH
hPa
Press
MSL
hPa
Rain
since
9 am
mm
Dir
 
Spd
km/h
Gust
km/h
Spd
kts
Gust
kts
18/11:30pm 7.7 3.7 3.0 72 2.0 SE 13 19 7 10 1025.0 1025.3 0.0
18/11:00pm 7.2 4.4 3.4 77 1.6 SE 7 11 4 6 1025.2 - 0.0
18/10:30pm 6.8 3.3 3.6 80 1.4 SE 11 13 6 7 1025.2 1025.5 0.0
18/10:00pm 7.6 4.3 4.6 81 1.3 SSE 11 13 6 7 1025.2 - 0.0
18/09:30pm 6.8 4.1 3.9 82 1.3 SE 7 9 4 5 1025.1 1025.4 0.0
18/09:00pm 7.3 4.9 5.3 87 0.9 SE 7 9 4 5 1025.1 1025.4 0.0
18/08:30pm 7.3 5.6 5.9 91 0.6 SE 4 6 2 3 1025.0 1025.3 0.0
18/08:00pm 7.2 5.1 6.0 92 0.6 SE 6 7 3 4 1024.8 - 0.0
18/07:30pm 7.0 4.7 5.8 92 0.5 SE 7 9 4 5 1024.6 1024.9 0.0
18/07:00pm 6.1 3.6 4.7 91 0.6 SE 7 9 4 5 1024.4 - 0.0
18/06:30pm 6.8 4.3 5.0 88 0.8 SE 7 7 4 4 1024.1 1024.4 0.0
18/06:00pm 7.3 4.5 5.3 87 0.9 SE 9 11 5 6 1023.8 1024.1 0.0
18/05:30pm 8.2 5.0 5.3 82 1.3 SE 11 15 6 8 1023.5 1023.8 0.0
18/05:00pm 8.9 5.5 5.8 81 1.4 SSE 13 17 7 9 1023.1 - 0.0
18/04:30pm 9.4 5.6 5.6 77 1.8 SE 15 20 8 11 1023.0 1023.3 0.0
18/04:00pm 9.9 6.1 5.7 75 2.0 SE 15 19 8 10 1022.9 - 0.0
18/03:30pm 10.2 5.6 5.6 73 2.1 SSE 19 26 10 14 1022.8 1023.1 0.0
18/03:00pm 9.7 5.4 5.1 73 2.1 SSE 17 20 9 11 1022.8 1023.1 0.0
18/02:30pm 10.8 7.8 6.0 72 2.3 SE 11 17 6 9 1022.7 1023.0 0.0
18/02:00pm 10.3 6.8 5.5 72 2.2 SSE 13 20 7 11 1022.8 - 0.0
18/01:30pm 10.6 6.9 6.2 74 2.1 SSE 15 19 8 10 1022.9 1023.2 0.0
18/01:00pm 11.1 7.9 7.0 76 2.0 SE 13 20 7 11 1023.0 - 0.0
18/12:30pm 10.9 7.7 6.8 76 2.0 SE 13 20 7 11 1023.5 1023.8 0.0
18/12:00pm 10.2 6.1 6.0 75 2.0 SE 17 20 9 11 1023.8 1024.1 0.0
18/11:30am 11.0 7.9 8.8 86 1.1 SE 15 20 8 11 1024.0 1024.3 0.0
18/11:00am 9.6 6.3 8.2 91 0.7 SE 15 20 8 11 1024.3 - 0.0
18/10:30am 9.9 6.6 8.2 89 0.8 SSE 15 20 8 11 1024.4 1024.7 0.0
18/10:00am 9.8 7.4 8.7 93 0.5 S 11 19 6 10 1024.4 - 0.0
18/09:30am 8.8 6.8 8.8 100 0.0 S 9 13 5 7 1024.4 1024.7 0.0
18/09:00am 8.5 5.7 8.5 100 0.0 S 13 19 7 10 1024.3 1024.6 3.8
18/08:30am 8.3 4.6 8.0 98 0.1 S 17 24 9 13 1024.1 1024.4 3.2
18/08:00am 8.1 6.3 7.3 95 0.4 SE 6 9 3 5 1023.8 - 3.2
18/07:30am 8.0 5.0 7.6 97 0.2 SSE 13 22 7 12 1023.7 1024.0 3.2
18/07:00am 7.1 4.7 7.0 99 0.0 SSE 9 13 5 7 1023.5 - 3.2
18/06:30am 6.5 4.5 6.4 99 0.0 SSE 6 7 3 4 1023.2 1023.6 3.2
18/06:00am 6.4 4.3 6.0 97 0.2 SSE 6 7 3 4 1022.8 1023.1 3.2
18/05:30am 7.3 4.5 6.9 97 0.2 SSE 11 15 6 8 1022.7 1023.0 3.2
18/05:00am 8.1 5.3 7.0 93 0.5 SSW 11 15 6 8 1022.5 - 3.2
18/04:30am 8.2 6.5 8.2 100 0.0 S 7 13 4 7 1022.3 1022.6 3.2
18/04:00am 8.2 6.5 8.2 100 0.0 S 7 9 4 5 1022.3 - 3.2
18/03:30am 8.4 6.9 8.4 100 0.0 SSE 6 9 3 5 1022.3 1022.6 3.2
18/03:00am 8.2 7.0 8.2 100 0.0 S 4 6 2 3 1022.4 1022.7 3.2
18/02:30am 7.8 5.6 7.8 100 0.0 S 9 15 5 8 1022.6 1022.9 3.2
18/02:00am 8.7 6.2 8.4 98 0.1 S 11 20 6 11 1022.9 - 3.2
18/01:30am 8.5 6.1 8.5 100 0.0 SSE 11 19 6 10 1023.1 1023.4 3.2
18/01:00am 8.8 5.7 8.7 99 0.0 SSE 15 19 8 10 1023.0 - 3.2
18/12:30am 8.8 6.1 8.8 100 0.0 SSE 13 19 7 10 1023.2 1023.6 3.2
18/12:00am 8.9 5.4 8.9 100 0.0 SE 17 24 9 13 1023.1 1023.4 3.0
 
Date/Time
CST
Tmp

°C
App
Tmp
°C
Dew
Point
°C
Rel
Hum
%
Delta-T

°C
Wind Press
QNH
hPa
Press
MSL
hPa
Rain
since
9 am
mm
Dir
 
Spd
km/h
Gust
km/h
Spd
kts
Gust
kts
17/11:30pm 8.9 5.8 8.9 100 0.0 SSE 15 19 8 10 1023.1 1023.4 3.0
17/11:00pm 8.8 6.1 8.8 100 0.0 SE 13 19 7 10 1023.1 - 3.0
17/10:30pm 8.7 5.6 8.7 100 0.0 SSE 15 20 8 11 1023.2 1023.6 3.0
17/10:00pm 8.6 5.8 8.6 100 0.0 SSE 13 19 7 10 1023.2 - 3.0
17/09:30pm 8.3 5.8 8.3 100 0.0 SSE 11 15 6 8 1023.3 1023.7 3.0
17/09:00pm 8.4 4.8 8.4 100 0.0 S 17 24 9 13 1023.0 1023.3 3.0
17/08:30pm 8.9 6.6 8.9 100 0.0 S 11 17 6 9 1022.7 1023.0 2.8
17/08:00pm 9.0 5.2 9.0 100 0.0 S 19 24 10 13 1022.5 - 2.0
17/07:30pm 8.7 6.7 8.7 100 0.0 SSW 9 11 5 6 1022.5 1022.8 2.0
17/07:00pm 8.4 5.9 8.4 100 0.0 S 11 15 6 8 1022.4 - 2.0
17/06:30pm 8.0 4.7 7.9 99 0.0 S 15 17 8 9 1022.0 1022.3 2.0

Latest Capital City Observations: Canberra | Sydney | Melbourne | Brisbane | Adelaide | Perth | Hobart | Darwin

Other Formats:

Comma delimited format used in spreadsheet applications
http://www.bom.gov.au/fwo/IDS60901/IDS60901.94811.axf

JavaScript Object Notation format (JSON) in row-major order
http://www.bom.gov.au/fwo/IDS60901/IDS60901.94811.json